createdAt,value
2018-05-06T00:00:09.911Z,43.17
2018-05-06T00:02:43.475Z,44.86
2018-05-06T00:05:17.096Z,45.73
2018-05-06T00:07:50.652Z,45.00
2018-05-06T00:10:24.462Z,45.23
2018-05-06T00:12:58.056Z,46.51
2018-05-06T00:15:31.888Z,45.57
2018-05-06T00:18:05.617Z,44.50
2018-05-06T00:20:39.308Z,44.79
2018-05-06T00:23:13.061Z,44.68
2018-05-06T00:25:46.876Z,44.33
2018-05-06T00:28:20.624Z,44.16
2018-05-06T00:30:54.165Z,43.93
2018-05-06T00:33:27.736Z,43.86
2018-05-06T00:36:01.280Z,44.09
2018-05-06T00:38:34.828Z,43.97
2018-05-06T00:41:08.388Z,44.40
2018-05-06T00:43:42.136Z,44.26
2018-05-06T00:46:15.755Z,45.15
2018-05-06T00:48:49.528Z,45.63
2018-05-06T00:51:23.135Z,45.21
2018-05-06T00:53:56.920Z,45.28
2018-05-06T00:56:30.519Z,45.41
2018-05-06T00:59:04.076Z,45.44
2018-05-06T01:01:37.636Z,45.69
2018-05-06T01:04:11.328Z,45.74
2018-05-06T01:06:44.976Z,46.27
2018-05-06T01:09:18.807Z,46.04
2018-05-06T01:11:52.716Z,46.20
2018-05-06T01:14:26.541Z,46.43
2018-05-06T01:17:00.311Z,47.01
2018-05-06T01:19:34.060Z,46.98
2018-05-06T01:22:07.744Z,47.14
2018-05-06T01:24:41.396Z,47.39
2018-05-06T01:27:14.960Z,47.50
2018-05-06T01:29:48.519Z,48.02
2018-05-06T01:32:22.092Z,48.37
2018-05-06T01:34:55.810Z,48.01
2018-05-06T01:37:29.518Z,48.25
2018-05-06T01:40:03.080Z,48.29
2018-05-06T01:42:36.872Z,48.89
2018-05-06T01:45:10.475Z,49.19
2018-05-06T01:47:44.008Z,49.19
2018-05-06T01:50:17.704Z,49.03
2018-05-06T01:52:51.308Z,49.27
2018-05-06T01:55:24.942Z,48.80
2018-05-06T01:57:58.708Z,48.88
2018-05-06T02:00:32.250Z,48.86
2018-05-06T02:03:05.820Z,48.60
2018-05-06T02:05:39.423Z,48.22
2018-05-06T02:08:12.961Z,48.17
2018-05-06T02:10:46.688Z,48.43
2018-05-06T02:13:20.230Z,48.31
2018-05-06T02:15:53.851Z,48.75
2018-05-06T02:18:27.534Z,49.45
2018-05-06T02:21:01.068Z,48.91
2018-05-06T02:23:34.762Z,49.98
2018-05-06T02:26:08.362Z,50.10
2018-05-06T02:28:41.934Z,49.00
2018-05-06T02:31:15.689Z,49.18
2018-05-06T02:33:49.236Z,48.51
2018-05-06T02:36:22.848Z,50.91
2018-05-06T02:38:56.615Z,50.13
2018-05-06T02:41:30.441Z,48.46
2018-05-06T02:44:04.074Z,48.83
2018-05-06T02:46:37.656Z,48.47
2018-05-06T02:49:11.501Z,48.32
2018-05-06T02:51:45.267Z,48.96
2018-05-06T02:54:18.856Z,48.22
2018-05-06T02:56:52.517Z,48.51
2018-05-06T02:59:26.062Z,48.22
2018-05-06T03:01:59.753Z,48.65
2018-05-06T03:04:33.313Z,48.21
2018-05-06T03:07:07.088Z,47.82
2018-05-06T03:09:40.647Z,47.38
2018-05-06T03:12:14.358Z,47.22
2018-05-06T03:14:48.084Z,47.67
2018-05-06T03:17:21.750Z,47.03
2018-05-06T03:19:55.508Z,48.05
2018-05-06T03:22:29.134Z,48.22
2018-05-06T03:25:02.736Z,48.50
2018-05-06T03:27:36.439Z,48.64
2018-05-06T03:30:10.025Z,48.42
2018-05-06T03:32:43.819Z,47.64
2018-05-06T03:35:17.617Z,49.77
2018-05-06T03:37:51.248Z,49.15
2018-05-06T03:40:24.756Z,49.23
2018-05-06T03:42:58.540Z,48.63
2018-05-06T03:45:32.529Z,48.44
2018-05-06T03:48:06.144Z,48.61
2018-05-06T03:50:39.753Z,47.17
2018-05-06T03:53:13.442Z,46.26
2018-05-06T03:55:46.999Z,46.71
2018-05-06T03:58:32.528Z,46.80
2018-05-06T04:01:06.210Z,45.80
2018-05-06T04:03:40.665Z,45.96
2018-05-06T04:06:14.371Z,44.98
2018-05-06T04:08:48.031Z,46.08
2018-05-06T04:11:21.771Z,44.96
2018-05-06T04:13:55.329Z,44.98
2018-05-06T04:16:29.115Z,48.15
2018-05-06T04:19:02.894Z,45.42
2018-05-06T04:21:36.547Z,47.01
2018-05-06T04:24:10.371Z,46.79
2018-05-06T04:26:44.144Z,47.18
2018-05-06T04:29:17.896Z,47.75
2018-05-06T04:31:51.440Z,46.46
2018-05-06T04:34:25.204Z,47.03
2018-05-06T04:36:59.099Z,48.61
2018-05-06T04:39:32.737Z,47.40
2018-05-06T04:42:06.584Z,45.96
2018-05-06T04:44:40.436Z,45.64
2018-05-06T04:47:14.076Z,44.50
2018-05-06T04:49:47.664Z,45.40
2018-05-06T04:52:21.446Z,44.23
2018-05-06T04:54:54.968Z,43.61
2018-05-06T04:57:28.644Z,44.33
2018-05-06T05:00:02.456Z,43.49
2018-05-06T05:02:35.971Z,43.63
2018-05-06T05:05:09.554Z,43.82
2018-05-06T05:07:43.323Z,43.49
2018-05-06T05:10:17.079Z,43.18
2018-05-06T05:12:50.933Z,42.48
2018-05-06T05:15:24.536Z,42.64
2018-05-06T05:17:58.100Z,42.33
2018-05-06T05:20:31.779Z,42.84
2018-05-06T05:23:05.419Z,41.81
2018-05-06T05:25:39.189Z,41.15
2018-05-06T05:28:12.728Z,41.47
2018-05-06T05:30:47.128Z,40.87
2018-05-06T05:33:20.650Z,40.91
2018-05-06T05:35:54.332Z,40.76
2018-05-06T05:38:28.052Z,39.93
2018-05-06T05:41:01.858Z,39.97
2018-05-06T05:43:35.445Z,39.90
2018-05-06T05:46:09.026Z,39.51
2018-05-06T05:48:42.504Z,37.80
2018-05-06T05:51:16.340Z,37.96
2018-05-06T05:53:50.021Z,37.71
2018-05-06T05:56:24.775Z,37.60
2018-05-06T05:58:58.412Z,37.35
2018-05-06T06:01:31.964Z,36.95
2018-05-06T06:04:05.524Z,36.72
2018-05-06T06:06:39.081Z,37.05
2018-05-06T06:09:12.864Z,34.09
2018-05-06T06:11:46.584Z,31.77
2018-05-06T06:14:20.120Z,29.12
2018-05-06T06:16:53.850Z,27.42
2018-05-06T06:19:27.412Z,26.92
2018-05-06T06:22:01.216Z,25.05
2018-05-06T06:24:34.930Z,25.03
2018-05-06T06:27:08.475Z,25.26
2018-05-06T06:29:42.059Z,23.47
2018-05-06T06:32:15.809Z,23.76
2018-05-06T06:34:49.351Z,23.94
2018-05-06T06:37:22.815Z,22.76
2018-05-06T06:39:56.472Z,23.88
2018-05-06T06:42:30.238Z,23.59
2018-05-06T06:45:03.832Z,21.97
2018-05-06T06:47:37.458Z,21.35
2018-05-06T06:50:11.239Z,21.93
2018-05-06T06:52:44.959Z,22.41
2018-05-06T06:55:18.675Z,22.48
2018-05-06T06:57:52.292Z,22.79
2018-05-06T07:00:25.996Z,22.34
2018-05-06T07:02:59.568Z,23.06
2018-05-06T07:05:33.223Z,21.43
2018-05-06T07:08:06.765Z,21.05
2018-05-06T07:10:40.360Z,20.24
2018-05-06T07:13:14.214Z,20.77
2018-05-06T07:15:47.888Z,21.71
2018-05-06T07:18:21.507Z,21.58
2018-05-06T07:20:55.048Z,21.68
2018-05-06T07:23:28.749Z,20.43
2018-05-06T07:26:02.322Z,18.98
2018-05-06T07:28:35.831Z,19.01
2018-05-06T07:31:09.332Z,19.41
2018-05-06T07:33:42.893Z,19.73
2018-05-06T07:36:17.668Z,19.64
2018-05-06T07:38:51.255Z,18.44
2018-05-06T07:41:24.830Z,19.15
2018-05-06T07:43:58.431Z,18.20
2018-05-06T07:46:32.081Z,18.18
2018-05-06T07:49:05.968Z,17.35
2018-05-06T07:51:39.393Z,18.91
2018-05-06T07:54:13.141Z,18.47
2018-05-06T07:56:46.844Z,19.31
2018-05-06T07:59:20.468Z,17.65
2018-05-06T08:01:54.046Z,17.90
2018-05-06T08:04:27.700Z,16.26
2018-05-06T08:07:01.216Z,17.37
2018-05-06T08:09:35.023Z,18.13
2018-05-06T08:12:08.552Z,16.58
2018-05-06T08:14:42.035Z,16.76
2018-05-06T08:17:15.687Z,16.90
2018-05-06T08:19:49.220Z,16.38
2018-05-06T08:22:22.918Z,16.73
2018-05-06T08:24:56.431Z,17.49
2018-05-06T08:27:29.965Z,15.61
2018-05-06T08:30:03.584Z,14.93
2018-05-06T08:32:37.125Z,14.25
2018-05-06T08:35:10.797Z,16.52
2018-05-06T08:37:44.351Z,15.45
2018-05-06T08:40:18.028Z,15.21
2018-05-06T08:42:51.584Z,15.36
2018-05-06T08:45:25.556Z,16.15
2018-05-06T08:47:59.071Z,13.42
2018-05-06T08:50:32.727Z,14.60
2018-05-06T08:53:07.521Z,14.49
2018-05-06T08:55:41.275Z,14.08
2018-05-06T08:58:14.770Z,14.24
2018-05-06T09:00:48.355Z,12.45
2018-05-06T09:03:21.900Z,12.25
2018-05-06T09:05:55.733Z,12.94
2018-05-06T09:08:29.444Z,14.00
2018-05-06T09:11:03.074Z,12.26
2018-05-06T09:13:36.827Z,14.84
2018-05-06T09:16:10.486Z,12.81
2018-05-06T09:18:44.047Z,11.77
2018-05-06T09:21:17.610Z,10.90
2018-05-06T09:23:51.172Z,10.63
2018-05-06T09:26:24.983Z,11.11
2018-05-06T09:28:58.504Z,11.00
2018-05-06T09:31:32.647Z,9.94
2018-05-06T09:34:06.259Z,10.12
2018-05-06T09:36:39.879Z,10.86
2018-05-06T09:39:13.666Z,10.62
2018-05-06T09:41:47.285Z,11.20
2018-05-06T09:44:20.916Z,12.50
2018-05-06T09:46:54.507Z,12.06
2018-05-06T09:49:28.271Z,11.70
2018-05-06T09:52:01.830Z,10.34
2018-05-06T09:54:35.586Z,11.23
2018-05-06T09:57:09.302Z,12.64
2018-05-06T09:59:42.828Z,10.99
2018-05-06T10:02:16.688Z,10.72
2018-05-06T10:04:50.344Z,10.11
2018-05-06T10:07:23.921Z,10.10
2018-05-06T10:09:57.516Z,10.01
2018-05-06T10:12:31.176Z,9.67
2018-05-06T10:15:04.851Z,11.76
2018-05-06T10:17:38.463Z,10.06
2018-05-06T10:20:12.068Z,9.78
2018-05-06T10:22:45.596Z,10.31
2018-05-06T10:25:19.452Z,9.64
2018-05-06T10:27:52.981Z,10.47
2018-05-06T10:30:26.748Z,9.11
2018-05-06T10:33:00.231Z,10.26
2018-05-06T10:35:34.031Z,10.05
2018-05-06T10:38:07.554Z,11.14
2018-05-06T10:40:41.212Z,10.22
2018-05-06T10:43:14.767Z,9.92
2018-05-06T10:45:48.316Z,9.68
2018-05-06T10:48:21.936Z,10.07
2018-05-06T10:50:55.529Z,12.02
2018-05-06T10:53:29.169Z,11.33
2018-05-06T10:56:02.695Z,9.42
2018-05-06T10:58:36.371Z,10.11
2018-05-06T11:01:10.045Z,11.09
2018-05-06T11:03:43.842Z,10.95
2018-05-06T11:06:17.408Z,10.83
2018-05-06T11:08:51.024Z,11.05
2018-05-06T11:11:24.680Z,12.34
2018-05-06T11:13:58.275Z,13.62
2018-05-06T11:16:31.843Z,12.76
2018-05-06T11:19:05.390Z,12.04
2018-05-06T11:21:39.028Z,11.83
2018-05-06T11:24:12.800Z,10.52
2018-05-06T11:26:46.460Z,11.78
2018-05-06T11:29:20.020Z,10.27
2018-05-06T11:31:53.824Z,12.13
2018-05-06T11:34:27.376Z,13.56
2018-05-06T11:37:01.186Z,11.54
2018-05-06T11:39:34.870Z,12.78
2018-05-06T11:42:08.413Z,13.12
2018-05-06T11:44:41.968Z,14.52
2018-05-06T11:47:16.110Z,13.37
2018-05-06T11:49:49.727Z,14.64
2018-05-06T11:52:23.276Z,16.00
2018-05-06T11:54:56.806Z,15.11
2018-05-06T11:57:30.450Z,16.48
2018-05-06T12:00:04.088Z,16.90
2018-05-06T12:02:37.852Z,16.08
2018-05-06T12:05:11.477Z,16.62
2018-05-06T12:07:45.144Z,17.30
2018-05-06T12:10:18.700Z,17.60
2018-05-06T12:12:52.428Z,18.64
2018-05-06T12:15:25.929Z,17.56
2018-05-06T12:17:59.656Z,18.71
2018-05-06T12:20:33.423Z,18.77
2018-05-06T12:23:06.971Z,19.96
2018-05-06T12:25:40.655Z,18.91
2018-05-06T12:28:14.332Z,18.92
2018-05-06T12:30:47.909Z,19.63
2018-05-06T12:33:21.707Z,19.61
2018-05-06T12:35:55.351Z,23.03
2018-05-06T12:38:29.065Z,24.28
2018-05-06T12:41:02.576Z,23.42
2018-05-06T12:43:36.144Z,24.64
2018-05-06T12:46:09.881Z,25.37
2018-05-06T12:48:43.685Z,23.86
2018-05-06T12:51:17.234Z,22.73
2018-05-06T12:53:50.965Z,23.75
2018-05-06T12:56:24.665Z,24.77
2018-05-06T12:58:58.266Z,25.21
2018-05-06T13:01:32.001Z,24.82
2018-05-06T13:04:05.656Z,24.21
2018-05-06T13:06:39.265Z,24.02
2018-05-06T13:09:13.049Z,24.07
2018-05-06T13:11:46.669Z,24.43
2018-05-06T13:14:20.179Z,24.95
2018-05-06T13:16:53.949Z,24.71
2018-05-06T13:19:27.520Z,24.99
2018-05-06T13:22:01.065Z,26.37
2018-05-06T13:24:34.739Z,23.16
2018-05-06T13:27:09.301Z,24.62
2018-05-06T13:29:43.001Z,24.66
2018-05-06T13:32:16.762Z,26.18
2018-05-06T13:34:50.476Z,26.41
2018-05-06T13:37:24.129Z,25.44
2018-05-06T13:39:57.730Z,24.94
2018-05-06T13:42:31.297Z,25.78
2018-05-06T13:45:05.020Z,24.92
2018-05-06T13:47:38.624Z,23.81
2018-05-06T13:50:12.539Z,24.97
2018-05-06T13:52:45.953Z,24.28
2018-05-06T13:55:19.604Z,25.07
2018-05-06T13:57:53.357Z,24.32
2018-05-06T14:00:27.059Z,26.03
2018-05-06T14:03:00.819Z,24.66
2018-05-06T14:05:34.499Z,24.54
2018-05-06T14:08:09.308Z,25.10
2018-05-06T14:10:42.899Z,25.04
2018-05-06T14:13:16.499Z,24.67
2018-05-06T14:15:50.117Z,23.71
2018-05-06T14:18:23.615Z,23.15
2018-05-06T14:20:57.311Z,22.42
2018-05-06T14:23:31.087Z,21.47
2018-05-06T14:26:04.781Z,19.62
2018-05-06T14:28:38.324Z,18.21
2018-05-06T14:31:11.985Z,19.15
2018-05-06T14:33:45.728Z,18.40
2018-05-06T14:36:19.385Z,19.39
2018-05-06T14:38:53.037Z,18.67
2018-05-06T14:41:26.720Z,17.97
2018-05-06T14:44:00.497Z,17.65
2018-05-06T14:46:45.864Z,17.54
2018-05-06T14:49:19.648Z,16.94
2018-05-06T14:51:53.382Z,17.19
2018-05-06T14:54:27.112Z,16.85
2018-05-06T14:57:00.841Z,18.31
2018-05-06T14:59:34.472Z,17.27
2018-05-06T15:02:08.020Z,17.17
2018-05-06T15:04:42.711Z,17.83
2018-05-06T15:07:16.364Z,17.99
2018-05-06T15:09:49.917Z,18.04
2018-05-06T15:12:23.490Z,18.59
2018-05-06T15:14:57.249Z,19.40
2018-05-06T15:17:31.106Z,19.59
2018-05-06T15:20:04.752Z,20.15
2018-05-06T15:22:38.408Z,20.28
2018-05-06T15:25:11.974Z,20.99
2018-05-06T15:27:45.781Z,20.86
2018-05-06T15:30:19.409Z,20.95
2018-05-06T15:32:53.011Z,21.12
2018-05-06T15:35:26.672Z,22.09
2018-05-06T15:38:00.203Z,22.67
2018-05-06T15:40:34.014Z,23.92
2018-05-06T15:43:07.679Z,24.56
2018-05-06T15:45:41.213Z,24.97
2018-05-06T15:48:14.770Z,25.56
2018-05-06T15:50:48.545Z,26.31
2018-05-06T15:53:22.945Z,26.38
2018-05-06T15:55:56.663Z,26.68
2018-05-06T15:58:30.415Z,27.43
2018-05-06T16:01:03.918Z,27.53
2018-05-06T16:03:49.284Z,27.49
2018-05-06T16:06:24.353Z,27.94
2018-05-06T16:08:58.085Z,28.32
2018-05-06T16:11:31.665Z,28.29
2018-05-06T16:14:05.293Z,28.97
2018-05-06T16:16:39.043Z,28.98
2018-05-06T16:19:12.620Z,29.63
2018-05-06T16:21:46.081Z,29.25
2018-05-06T16:24:19.705Z,29.99
2018-05-06T16:26:53.476Z,30.52
2018-05-06T16:29:27.046Z,30.70
2018-05-06T16:32:00.696Z,31.28
2018-05-06T16:34:34.238Z,31.06
2018-05-06T16:40:07.572Z,31.05
2018-05-06T16:42:41.257Z,31.31
2018-05-06T16:45:14.825Z,30.83
2018-05-06T16:47:48.280Z,31.35
2018-05-06T16:50:22.070Z,31.71
2018-05-06T16:52:55.844Z,31.86
2018-05-06T16:55:29.416Z,32.05
2018-05-06T16:58:03.176Z,32.08
2018-05-06T17:00:36.816Z,31.94
2018-05-06T17:03:10.597Z,31.53
2018-05-06T17:05:44.429Z,32.30
2018-05-06T17:08:18.047Z,32.31
2018-05-06T17:10:51.689Z,33.51
2018-05-06T17:13:25.329Z,32.74
2018-05-06T17:15:58.938Z,32.95
2018-05-06T17:18:32.640Z,32.92
2018-05-06T17:21:06.359Z,32.96
2018-05-06T17:23:40.084Z,33.36
2018-05-06T17:26:13.918Z,32.93
2018-05-06T17:28:47.603Z,32.83
2018-05-06T17:31:21.393Z,33.50
2018-05-06T17:33:55.052Z,33.21
2018-05-06T17:36:28.721Z,33.43
2018-05-06T17:39:02.426Z,33.72
2018-05-06T17:41:36.068Z,34.19
2018-05-06T17:44:09.686Z,33.88
2018-05-06T17:46:43.514Z,34.25
2018-05-06T17:49:17.097Z,34.23
2018-05-06T17:51:50.821Z,35.20
2018-05-06T17:54:24.466Z,34.91
2018-05-06T17:56:58.165Z,34.80
2018-05-06T17:59:32.027Z,34.61
2018-05-06T18:02:05.659Z,35.13
2018-05-06T18:04:39.366Z,34.72
2018-05-06T18:07:13.188Z,34.99
2018-05-06T18:09:46.877Z,35.01
2018-05-06T18:12:20.924Z,36.33
2018-05-06T18:14:54.837Z,35.67
2018-05-06T18:17:28.481Z,35.48
2018-05-06T18:20:02.913Z,35.70
2018-05-06T18:22:36.825Z,35.99
2018-05-06T18:25:10.626Z,36.44
2018-05-06T18:27:44.358Z,36.12
2018-05-06T18:30:17.931Z,36.62
2018-05-06T18:32:51.526Z,36.68
2018-05-06T18:35:25.296Z,36.54
2018-05-06T18:37:59.095Z,37.52
2018-05-06T18:40:32.725Z,37.29
2018-05-06T18:43:06.288Z,37.63
2018-05-06T18:45:39.988Z,37.36
2018-05-06T18:48:13.562Z,38.22
2018-05-06T18:50:47.314Z,38.26
2018-05-06T18:53:21.085Z,38.57
2018-05-06T18:55:54.744Z,38.76
2018-05-06T18:58:28.435Z,39.29
2018-05-06T19:01:02.209Z,39.56
2018-05-06T19:03:35.821Z,39.21
2018-05-06T19:06:09.458Z,39.40
2018-05-06T19:08:43.165Z,39.85
2018-05-06T19:11:16.808Z,40.10
2018-05-06T19:13:50.676Z,40.38
2018-05-06T19:16:24.266Z,40.35
2018-05-06T19:18:57.957Z,40.47
2018-05-06T19:21:31.815Z,40.34
2018-05-06T19:24:05.460Z,41.64
2018-05-06T19:26:39.226Z,41.11
2018-05-06T19:29:12.885Z,41.49
2018-05-06T19:31:46.457Z,42.02
2018-05-06T19:34:20.188Z,41.68
2018-05-06T19:36:53.723Z,42.54
2018-05-06T19:39:27.438Z,42.87
2018-05-06T19:42:01.179Z,44.80
2018-05-06T19:44:35.013Z,43.62
2018-05-06T19:47:09.008Z,43.64
2018-05-06T19:49:42.725Z,43.87
2018-05-06T19:52:16.584Z,45.90
2018-05-06T19:54:50.328Z,42.99
2018-05-06T19:57:24.068Z,42.43
2018-05-06T19:59:57.645Z,41.98
2018-05-06T20:02:31.537Z,42.18
2018-05-06T20:05:05.042Z,41.53
2018-05-06T20:07:38.677Z,41.58
2018-05-06T20:10:12.311Z,41.45
2018-05-06T20:12:45.987Z,42.60
2018-05-06T20:15:19.652Z,42.30
2018-05-06T20:17:53.385Z,42.69
2018-05-06T20:20:27.109Z,43.18
2018-05-06T20:23:00.748Z,42.68
2018-05-06T20:25:34.471Z,42.48
2018-05-06T20:28:08.068Z,42.96
2018-05-06T20:30:41.803Z,43.50
2018-05-06T20:33:15.489Z,43.16
2018-05-06T20:35:49.169Z,42.87
2018-05-06T20:38:22.993Z,42.94
2018-05-06T20:40:56.647Z,43.05
2018-05-06T20:43:30.218Z,43.02
2018-05-06T20:46:03.916Z,44.34
2018-05-06T20:48:37.659Z,44.25
2018-05-06T20:51:11.361Z,43.75
2018-05-06T20:53:45.080Z,44.42
2018-05-06T20:56:18.819Z,45.14
2018-05-06T20:58:52.597Z,44.67
2018-05-06T21:01:26.237Z,44.74
2018-05-06T21:03:59.962Z,44.86
2018-05-06T21:06:33.733Z,44.73
2018-05-06T21:09:07.600Z,45.29
2018-05-06T21:11:41.194Z,45.25
2018-05-06T21:14:14.787Z,45.33
2018-05-06T21:16:48.543Z,46.11
2018-05-06T21:19:25.737Z,46.26
2018-05-06T21:21:59.476Z,46.54
2018-05-06T21:24:33.203Z,46.81
2018-05-06T21:27:06.821Z,46.14
2018-05-06T21:29:40.591Z,46.40
2018-05-06T21:32:14.235Z,46.12
2018-05-06T21:34:47.953Z,46.58
2018-05-06T21:37:21.585Z,46.36
2018-05-06T21:39:55.212Z,46.40
2018-05-06T21:42:28.807Z,46.46
2018-05-06T21:45:02.419Z,46.43
2018-05-06T21:47:36.036Z,47.08
2018-05-06T21:50:10.092Z,46.78
2018-05-06T21:52:44.737Z,46.57
2018-05-06T21:55:18.472Z,46.61
2018-05-06T21:57:52.061Z,47.30
2018-05-06T22:00:25.628Z,47.10
2018-05-06T22:02:59.428Z,48.30
2018-05-06T22:05:33.215Z,47.84
2018-05-06T22:08:07.074Z,48.51
2018-05-06T22:10:41.265Z,48.55
2018-05-06T22:13:15.051Z,48.12
2018-05-06T22:15:48.688Z,48.57
2018-05-06T22:18:22.424Z,48.29
2018-05-06T22:20:56.216Z,49.03
2018-05-06T22:23:29.879Z,49.11
2018-05-06T22:26:03.491Z,48.57
2018-05-06T22:28:37.204Z,48.69
2018-05-06T22:31:10.920Z,48.34
2018-05-06T22:33:44.615Z,48.68
2018-05-06T22:36:18.228Z,48.06
2018-05-06T22:38:51.904Z,47.90
2018-05-06T22:41:25.573Z,48.56
2018-05-06T22:43:59.278Z,48.99
2018-05-06T22:46:32.893Z,49.69
2018-05-06T22:49:06.636Z,49.31
2018-05-06T22:51:40.401Z,48.53
2018-05-06T22:54:14.080Z,48.39
2018-05-06T22:56:47.779Z,49.53
2018-05-06T22:59:21.453Z,48.48
2018-05-06T23:01:55.063Z,47.83
2018-05-06T23:04:28.762Z,48.01
2018-05-06T23:07:02.459Z,48.43
2018-05-06T23:09:36.043Z,49.49
2018-05-06T23:12:09.730Z,48.83
2018-05-06T23:14:43.791Z,48.95
2018-05-06T23:17:17.478Z,49.06
2018-05-06T23:19:51.239Z,49.54
2018-05-06T23:22:24.739Z,49.95
2018-05-06T23:24:58.483Z,49.52
2018-05-06T23:27:32.272Z,49.11
2018-05-06T23:30:06.086Z,49.17
2018-05-06T23:32:39.902Z,49.10
2018-05-06T23:35:13.488Z,49.65
2018-05-06T23:37:47.200Z,49.84
2018-05-06T23:40:20.819Z,49.48
2018-05-06T23:42:54.392Z,49.49
2018-05-06T23:45:27.966Z,49.50
2018-05-06T23:48:01.519Z,50.05
2018-05-06T23:50:35.055Z,49.95
2018-05-06T23:53:08.612Z,49.69
2018-05-06T23:55:42.284Z,49.38
2018-05-06T23:58:15.856Z,49.76
